Strona główna
METAR-TAF:

METAR-TAF

Lotnisko :

Tweed New Haven Regional Airport

New Haven, Connecticut, Stany Zjednoczone

Szerokość geograficzna: 41-15-50N, Długość geograficzna: 072-53-14W, wysokość: 4 m

Aktualna obserwacja pogody

Raport powstał 35 minut temu, godzina 01:53 UTC
Wiatr 10 kt od południowo-południowy wschód
Temperatura 21°C
Wilgotność 88%
Ciśnienie 1004 hPa
Widzialność: 8.0 km
Mało chmury na wysokości 8000 ft
Przerywane chmury na wysokości 9500 ft
Zachmurzenie całkowite na wysokości 11000 ft
słaby deszcz, zamglenie

METAR: KHVN 040153Z 16010KT 5SM -RA BR FEW080 BKN095 OVC110 21/19 A2964 RMK AO2 LTG DSNT S PRESFR SLP037 P0013 T02060194

czas: 22:28 (02:28 UTC)


TAF: brakujący

Obserwacja i prognoza pogody dla ponad 4000 lotnisk (raport METAR i TAF).

Dostępne stacje oznaczono żółtymi i czerwonymi punktami na mapie.

Najedź kursorem aby zobaczyć nazwę stacji.

Kliknij aby zobaczyć obserwacje i prognozy pogody.

Aby zmienić mapę: kliknij na zielony przycisk z czarnym krzyżykiem, aby powiększyć; na zielony przycisk z myślnikiem, aby pomniejszyć; na zielone strzałki, aby przejść do map sąsiednich.


METAR-TAF: